Mattapoisett, Massachusetts
Current Conditions -  °F | °C
As of 9:53 PM on Friday 28 Nov 2014 (Local Time) from KEWB Reporting Station
Clear Clear  
Wind Chill: 22°   Ceiling: Unl
Heat Index: 27°   Visibility: 10mi
Dew Point: 18°   Wind: 5mph
Humidity: 69%   Direction: 300°WNW
Pressure: 30.19"   Gusts: NA
Location:  41.66°N, 70.82°W
Report Text: KEWB 290253Z AUTO 30004KT 10SM CLR M03/M08 A3019 RMK AO2 SLP224 T10281078 52010
Loading
Personal Weather Stations






























Interactive Weather Map New forecast layout! Learn more

10-Day Weather Forecast

Advertisements
Track Severe Weather on mobile